sensor_id;sensor_type;location;lat;lon;timestamp;P1;durP1;ratioP1;P2;durP2;ratioP2
21833;SDS011;11079;51.092;3.458;2022-08-25T00:01:09;16.58;;;12.60;;
21833;SDS011;11079;51.092;3.458;2022-08-25T00:04:03;15.13;;;13.43;;
21833;SDS011;11079;51.092;3.458;2022-08-25T00:06:31;14.57;;;13.15;;
21833;SDS011;11079;51.092;3.458;2022-08-25T00:08:57;14.98;;;13.50;;
21833;SDS011;11079;51.092;3.458;2022-08-25T00:11:24;18.98;;;14.15;;
21833;SDS011;11079;51.092;3.458;2022-08-25T00:13:53;15.27;;;12.73;;
21833;SDS011;11079;51.092;3.458;2022-08-25T00:16:22;15.30;;;13.80;;
21833;SDS011;11079;51.092;3.458;2022-08-25T00:18:50;16.02;;;14.43;;
21833;SDS011;11079;51.092;3.458;2022-08-25T00:21:18;15.68;;;14.10;;
21833;SDS011;11079;51.092;3.458;2022-08-25T00:23:45;16.83;;;14.80;;
21833;SDS011;11079;51.092;3.458;2022-08-25T00:26:12;16.17;;;14.35;;
21833;SDS011;11079;51.092;3.458;2022-08-25T00:28:39;15.98;;;14.38;;
21833;SDS011;11079;51.092;3.458;2022-08-25T00:31:06;15.13;;;13.60;;
21833;SDS011;11079;51.092;3.458;2022-08-25T00:33:36;16.23;;;14.63;;
21833;SDS011;11079;51.092;3.458;2022-08-25T00:36:02;16.67;;;14.98;;
21833;SDS011;11079;51.092;3.458;2022-08-25T00:38:28;17.80;;;15.68;;
21833;SDS011;11079;51.092;3.458;2022-08-25T00:40:53;16.88;;;15.15;;
21833;SDS011;11079;51.092;3.458;2022-08-25T00:46:09;18.05;;;16.33;;
21833;SDS011;11079;51.092;3.458;2022-08-25T00:48:41;18.05;;;16.05;;
21833;SDS011;11079;51.092;3.458;2022-08-25T00:51:10;18.33;;;16.73;;
21833;SDS011;11079;51.092;3.458;2022-08-25T00:53:37;19.15;;;17.23;;
21833;SDS011;11079;51.092;3.458;2022-08-25T00:56:04;18.58;;;16.77;;
21833;SDS011;11079;51.092;3.458;2022-08-25T00:58:29;19.50;;;17.60;;
21833;SDS011;11079;51.092;3.458;2022-08-25T01:00:56;19.70;;;17.40;;
21833;SDS011;11079;51.092;3.458;2022-08-25T01:03:23;24.38;;;17.70;;
21833;SDS011;11079;51.092;3.458;2022-08-25T01:05:51;19.10;;;17.20;;
21833;SDS011;11079;51.092;3.458;2022-08-25T01:08:18;19.73;;;17.83;;
21833;SDS011;11079;51.092;3.458;2022-08-25T01:10:49;20.30;;;17.60;;
21833;SDS011;11079;51.092;3.458;2022-08-25T01:13:16;20.70;;;18.52;;
21833;SDS011;11079;51.092;3.458;2022-08-25T01:15:51;19.85;;;17.85;;
21833;SDS011;11079;51.092;3.458;2022-08-25T01:18:19;21.13;;;18.85;;
21833;SDS011;11079;51.092;3.458;2022-08-25T01:20:49;20.60;;;18.58;;
21833;SDS011;11079;51.092;3.458;2022-08-25T01:23:17;20.38;;;18.40;;
21833;SDS011;11079;51.092;3.458;2022-08-25T01:28:18;19.80;;;17.75;;
21833;SDS011;11079;51.092;3.458;2022-08-25T01:30:44;20.98;;;18.88;;
21833;SDS011;11079;51.092;3.458;2022-08-25T01:33:10;20.98;;;18.95;;
21833;SDS011;11079;51.092;3.458;2022-08-25T01:35:36;21.10;;;19.10;;
21833;SDS011;11079;51.092;3.458;2022-08-25T01:38:04;20.92;;;19.02;;
21833;SDS011;11079;51.092;3.458;2022-08-25T01:40:31;21.23;;;19.00;;
21833;SDS011;11079;51.092;3.458;2022-08-25T01:43:10;22.15;;;20.08;;
21833;SDS011;11079;51.092;3.458;2022-08-25T01:45:45;23.55;;;21.15;;
21833;SDS011;11079;51.092;3.458;2022-08-25T01:48:13;21.92;;;19.92;;
21833;SDS011;11079;51.092;3.458;2022-08-25T01:50:39;24.33;;;21.88;;
21833;SDS011;11079;51.092;3.458;2022-08-25T01:53:22;24.10;;;21.80;;
21833;SDS011;11079;51.092;3.458;2022-08-25T01:55:51;25.58;;;23.15;;
21833;SDS011;11079;51.092;3.458;2022-08-25T01:58:24;26.15;;;23.65;;
21833;SDS011;11079;51.092;3.458;2022-08-25T02:00:57;26.00;;;23.63;;
21833;SDS011;11079;51.092;3.458;2022-08-25T02:03:25;27.20;;;24.63;;
21833;SDS011;11079;51.092;3.458;2022-08-25T02:05:52;27.88;;;25.38;;
21833;SDS011;11079;51.092;3.458;2022-08-25T02:08:20;27.77;;;25.05;;
21833;SDS011;11079;51.092;3.458;2022-08-25T02:10:47;28.52;;;25.48;;
21833;SDS011;11079;51.092;3.458;2022-08-25T02:13:13;26.70;;;24.25;;
21833;SDS011;11079;51.092;3.458;2022-08-25T02:15:43;28.60;;;25.80;;
21833;SDS011;11079;51.092;3.458;2022-08-25T02:18:12;31.13;;;28.25;;
21833;SDS011;11079;51.092;3.458;2022-08-25T02:20:38;29.85;;;26.92;;
21833;SDS011;11079;51.092;3.458;2022-08-25T02:23:03;29.45;;;26.83;;
21833;SDS011;11079;51.092;3.458;2022-08-25T02:25:29;29.95;;;26.95;;
21833;SDS011;11079;51.092;3.458;2022-08-25T02:27:56;31.45;;;28.45;;
21833;SDS011;11079;51.092;3.458;2022-08-25T02:30:22;31.45;;;28.35;;
21833;SDS011;11079;51.092;3.458;2022-08-25T02:32:48;31.08;;;27.95;;
21833;SDS011;11079;51.092;3.458;2022-08-25T02:35:15;32.25;;;29.08;;
21833;SDS011;11079;51.092;3.458;2022-08-25T02:37:40;33.00;;;29.55;;
21833;SDS011;11079;51.092;3.458;2022-08-25T02:40:07;32.83;;;29.63;;
21833;SDS011;11079;51.092;3.458;2022-08-25T02:42:33;33.78;;;30.50;;
21833;SDS011;11079;51.092;3.458;2022-08-25T02:44:58;34.65;;;31.25;;
21833;SDS011;11079;51.092;3.458;2022-08-25T02:47:24;34.13;;;30.52;;
21833;SDS011;11079;51.092;3.458;2022-08-25T02:49:50;33.17;;;29.65;;
21833;SDS011;11079;51.092;3.458;2022-08-25T02:52:16;34.03;;;30.73;;
21833;SDS011;11079;51.092;3.458;2022-08-25T02:54:42;32.45;;;29.35;;
21833;SDS011;11079;51.092;3.458;2022-08-25T02:57:08;33.47;;;30.17;;
21833;SDS011;11079;51.092;3.458;2022-08-25T02:59:35;33.05;;;29.77;;
21833;SDS011;11079;51.092;3.458;2022-08-25T03:02:02;31.65;;;28.50;;
21833;SDS011;11079;51.092;3.458;2022-08-25T03:04:28;30.02;;;27.17;;
21833;SDS011;11079;51.092;3.458;2022-08-25T03:06:54;31.80;;;28.60;;
21833;SDS011;11079;51.092;3.458;2022-08-25T03:09:20;30.23;;;27.05;;
21833;SDS011;11079;51.092;3.458;2022-08-25T03:11:47;30.33;;;27.42;;
21833;SDS011;11079;51.092;3.458;2022-08-25T03:14:13;32.67;;;29.58;;
21833;SDS011;11079;51.092;3.458;2022-08-25T03:16:38;34.13;;;30.83;;
21833;SDS011;11079;51.092;3.458;2022-08-25T03:19:06;34.70;;;31.10;;
21833;SDS011;11079;51.092;3.458;2022-08-25T03:21:32;36.72;;;32.95;;
21833;SDS011;11079;51.092;3.458;2022-08-25T03:23:58;33.35;;;29.98;;
21833;SDS011;11079;51.092;3.458;2022-08-25T03:26:24;34.55;;;31.27;;
21833;SDS011;11079;51.092;3.458;2022-08-25T03:29:08;36.05;;;32.50;;
21833;SDS011;11079;51.092;3.458;2022-08-25T03:31:34;37.22;;;33.35;;
21833;SDS011;11079;51.092;3.458;2022-08-25T03:34:01;33.58;;;30.25;;
21833;SDS011;11079;51.092;3.458;2022-08-25T03:36:27;56.22;;;31.20;;
21833;SDS011;11079;51.092;3.458;2022-08-25T03:38:53;36.92;;;33.38;;
21833;SDS011;11079;51.092;3.458;2022-08-25T03:41:21;34.58;;;31.23;;
21833;SDS011;11079;51.092;3.458;2022-08-25T03:43:50;37.47;;;33.70;;
21833;SDS011;11079;51.092;3.458;2022-08-25T03:46:20;37.00;;;33.22;;
21833;SDS011;11079;51.092;3.458;2022-08-25T03:48:47;36.97;;;33.30;;
21833;SDS011;11079;51.092;3.458;2022-08-25T03:51:30;36.47;;;32.78;;
21833;SDS011;11079;51.092;3.458;2022-08-25T03:53:58;36.28;;;32.65;;
21833;SDS011;11079;51.092;3.458;2022-08-25T03:56:25;36.20;;;32.50;;
21833;SDS011;11079;51.092;3.458;2022-08-25T03:58:51;34.03;;;30.83;;
21833;SDS011;11079;51.092;3.458;2022-08-25T04:01:18;36.08;;;32.40;;
21833;SDS011;11079;51.092;3.458;2022-08-25T04:03:44;35.65;;;31.90;;
21833;SDS011;11079;51.092;3.458;2022-08-25T04:06:10;36.33;;;32.72;;
21833;SDS011;11079;51.092;3.458;2022-08-25T04:08:36;35.60;;;32.03;;
21833;SDS011;11079;51.092;3.458;2022-08-25T04:11:09;36.38;;;32.83;;
21833;SDS011;11079;51.092;3.458;2022-08-25T04:13:38;35.58;;;31.90;;
21833;SDS011;11079;51.092;3.458;2022-08-25T04:16:19;38.40;;;34.70;;
21833;SDS011;11079;51.092;3.458;2022-08-25T04:18:47;37.17;;;33.47;;
21833;SDS011;11079;51.092;3.458;2022-08-25T04:21:13;37.78;;;34.00;;
21833;SDS011;11079;51.092;3.458;2022-08-25T04:23:41;101.68;;;90.60;;
21833;SDS011;11079;51.092;3.458;2022-08-25T04:26:08;64.05;;;57.25;;
21833;SDS011;11079;51.092;3.458;2022-08-25T04:28:43;59.80;;;53.53;;
21833;SDS011;11079;51.092;3.458;2022-08-25T04:31:10;72.18;;;59.45;;
21833;SDS011;11079;51.092;3.458;2022-08-25T04:33:38;69.50;;;60.05;;
21833;SDS011;11079;51.092;3.458;2022-08-25T04:36:06;62.33;;;55.60;;
21833;SDS011;11079;51.092;3.458;2022-08-25T04:38:35;49.47;;;44.00;;
21833;SDS011;11079;51.092;3.458;2022-08-25T04:41:04;49.05;;;43.20;;
21833;SDS011;11079;51.092;3.458;2022-08-25T04:43:31;55.78;;;48.28;;
21833;SDS011;11079;51.092;3.458;2022-08-25T04:46:03;53.50;;;45.45;;
21833;SDS011;11079;51.092;3.458;2022-08-25T04:48:30;54.97;;;47.75;;
21833;SDS011;11079;51.092;3.458;2022-08-25T04:50:56;49.22;;;43.92;;
21833;SDS011;11079;51.092;3.458;2022-08-25T04:53:22;49.22;;;40.45;;
21833;SDS011;11079;51.092;3.458;2022-08-25T04:55:48;50.08;;;40.80;;
21833;SDS011;11079;51.092;3.458;2022-08-25T04:58:14;44.13;;;38.78;;
21833;SDS011;11079;51.092;3.458;2022-08-25T05:00:40;43.85;;;39.15;;
21833;SDS011;11079;51.092;3.458;2022-08-25T05:03:06;40.90;;;36.55;;
21833;SDS011;11079;51.092;3.458;2022-08-25T05:05:37;41.65;;;37.22;;
21833;SDS011;11079;51.092;3.458;2022-08-25T05:08:03;39.53;;;35.45;;
21833;SDS011;11079;51.092;3.458;2022-08-25T05:10:29;37.25;;;33.42;;
21833;SDS011;11079;51.092;3.458;2022-08-25T05:12:55;36.97;;;33.17;;
21833;SDS011;11079;51.092;3.458;2022-08-25T05:15:21;36.63;;;32.83;;
21833;SDS011;11079;51.092;3.458;2022-08-25T05:18:05;36.05;;;32.17;;
21833;SDS011;11079;51.092;3.458;2022-08-25T05:20:31;34.65;;;31.25;;
21833;SDS011;11079;51.092;3.458;2022-08-25T05:23:01;34.88;;;31.38;;
21833;SDS011;11079;51.092;3.458;2022-08-25T05:25:27;31.58;;;27.80;;
21833;SDS011;11079;51.092;3.458;2022-08-25T05:27:53;37.35;;;33.38;;
21833;SDS011;11079;51.092;3.458;2022-08-25T05:30:18;37.83;;;33.97;;
21833;SDS011;11079;51.092;3.458;2022-08-25T05:32:44;35.47;;;31.83;;
21833;SDS011;11079;51.092;3.458;2022-08-25T05:35:10;31.20;;;28.10;;
21833;SDS011;11079;51.092;3.458;2022-08-25T05:37:36;28.98;;;25.80;;
21833;SDS011;11079;51.092;3.458;2022-08-25T05:40:02;28.05;;;25.38;;
21833;SDS011;11079;51.092;3.458;2022-08-25T05:42:29;29.08;;;23.02;;
21833;SDS011;11079;51.092;3.458;2022-08-25T05:44:55;22.45;;;20.05;;
21833;SDS011;11079;51.092;3.458;2022-08-25T05:47:20;23.35;;;19.90;;
21833;SDS011;11079;51.092;3.458;2022-08-25T05:49:46;25.33;;;19.27;;
21833;SDS011;11079;51.092;3.458;2022-08-25T05:52:12;27.42;;;19.73;;
21833;SDS011;11079;51.092;3.458;2022-08-25T05:54:38;24.90;;;18.80;;
21833;SDS011;11079;51.092;3.458;2022-08-25T05:57:06;26.45;;;18.17;;
21833;SDS011;11079;51.092;3.458;2022-08-25T05:59:33;25.73;;;16.63;;
21833;SDS011;11079;51.092;3.458;2022-08-25T06:01:59;26.88;;;17.15;;
21833;SDS011;11079;51.092;3.458;2022-08-25T06:04:45;30.08;;;17.08;;
21833;SDS011;11079;51.092;3.458;2022-08-25T06:07:13;17.02;;;14.13;;
21833;SDS011;11079;51.092;3.458;2022-08-25T06:09:39;20.27;;;15.52;;
21833;SDS011;11079;51.092;3.458;2022-08-25T06:12:07;19.48;;;14.38;;
21833;SDS011;11079;51.092;3.458;2022-08-25T06:14:33;14.88;;;13.38;;
21833;SDS011;11079;51.092;3.458;2022-08-25T06:17:02;14.48;;;12.98;;
21833;SDS011;11079;51.092;3.458;2022-08-25T06:19:28;15.55;;;14.10;;
21833;SDS011;11079;51.092;3.458;2022-08-25T06:22:04;14.90;;;13.27;;
21833;SDS011;11079;51.092;3.458;2022-08-25T06:24:29;17.42;;;14.00;;
21833;SDS011;11079;51.092;3.458;2022-08-25T06:26:55;19.20;;;13.90;;
21833;SDS011;11079;51.092;3.458;2022-08-25T06:29:21;19.23;;;14.30;;
21833;SDS011;11079;51.092;3.458;2022-08-25T06:31:49;16.23;;;13.38;;
21833;SDS011;11079;51.092;3.458;2022-08-25T06:34:34;21.00;;;15.10;;
21833;SDS011;11079;51.092;3.458;2022-08-25T06:37:16;22.83;;;14.20;;
21833;SDS011;11079;51.092;3.458;2022-08-25T06:39:42;18.25;;;15.45;;
21833;SDS011;11079;51.092;3.458;2022-08-25T06:42:08;21.73;;;15.35;;
21833;SDS011;11079;51.092;3.458;2022-08-25T06:44:34;20.38;;;16.15;;
21833;SDS011;11079;51.092;3.458;2022-08-25T06:47:07;23.58;;;17.42;;
21833;SDS011;11079;51.092;3.458;2022-08-25T06:49:39;23.48;;;17.20;;
21833;SDS011;11079;51.092;3.458;2022-08-25T06:52:04;21.92;;;15.85;;
21833;SDS011;11079;51.092;3.458;2022-08-25T06:54:30;17.10;;;14.85;;
21833;SDS011;11079;51.092;3.458;2022-08-25T06:56:55;21.38;;;15.50;;
21833;SDS011;11079;51.092;3.458;2022-08-25T06:59:24;22.08;;;13.95;;
21833;SDS011;11079;51.092;3.458;2022-08-25T07:01:50;20.30;;;15.05;;
21833;SDS011;11079;51.092;3.458;2022-08-25T07:04:16;26.55;;;14.70;;
21833;SDS011;11079;51.092;3.458;2022-08-25T07:06:50;22.55;;;13.70;;
21833;SDS011;11079;51.092;3.458;2022-08-25T07:09:16;19.98;;;13.45;;
21833;SDS011;11079;51.092;3.458;2022-08-25T07:11:43;20.70;;;13.05;;
21833;SDS011;11079;51.092;3.458;2022-08-25T07:14:10;13.02;;;10.70;;
21833;SDS011;11079;51.092;3.458;2022-08-25T07:16:37;10.98;;;9.73;;
21833;SDS011;11079;51.092;3.458;2022-08-25T07:19:04;14.30;;;10.23;;
21833;SDS011;11079;51.092;3.458;2022-08-25T07:21:32;13.68;;;9.90;;
21833;SDS011;11079;51.092;3.458;2022-08-25T07:24:00;13.68;;;10.70;;
21833;SDS011;11079;51.092;3.458;2022-08-25T07:26:29;11.93;;;9.88;;
21833;SDS011;11079;51.092;3.458;2022-08-25T07:28:58;9.77;;;8.80;;
21833;SDS011;11079;51.092;3.458;2022-08-25T07:31:25;11.77;;;9.30;;
21833;SDS011;11079;51.092;3.458;2022-08-25T07:33:51;10.00;;;8.73;;
21833;SDS011;11079;51.092;3.458;2022-08-25T07:36:36;10.30;;;7.90;;
21833;SDS011;11079;51.092;3.458;2022-08-25T07:39:02;10.57;;;8.32;;
21833;SDS011;11079;51.092;3.458;2022-08-25T07:41:30;12.48;;;8.15;;
21833;SDS011;11079;51.092;3.458;2022-08-25T07:43:59;11.50;;;7.70;;
21833;SDS011;11079;51.092;3.458;2022-08-25T07:46:25;11.20;;;7.32;;
21833;SDS011;11079;51.092;3.458;2022-08-25T07:48:51;8.70;;;6.20;;
21833;SDS011;11079;51.092;3.458;2022-08-25T07:51:17;11.73;;;6.80;;
21833;SDS011;11079;51.092;3.458;2022-08-25T07:53:42;9.13;;;6.00;;
21833;SDS011;11079;51.092;3.458;2022-08-25T07:56:10;12.32;;;6.32;;
21833;SDS011;11079;51.092;3.458;2022-08-25T07:58:36;10.45;;;6.45;;
21833;SDS011;11079;51.092;3.458;2022-08-25T08:01:03;10.85;;;5.95;;
21833;SDS011;11079;51.092;3.458;2022-08-25T08:03:29;10.70;;;6.78;;
21833;SDS011;11079;51.092;3.458;2022-08-25T08:05:55;8.10;;;5.78;;
21833;SDS011;11079;51.092;3.458;2022-08-25T08:08:22;13.70;;;7.15;;
21833;SDS011;11079;51.092;3.458;2022-08-25T08:10:47;7.57;;;5.80;;
21833;SDS011;11079;51.092;3.458;2022-08-25T08:13:13;9.98;;;7.07;;
21833;SDS011;11079;51.092;3.458;2022-08-25T08:15:40;9.63;;;6.40;;
21833;SDS011;11079;51.092;3.458;2022-08-25T08:18:07;10.73;;;5.97;;
21833;SDS011;11079;51.092;3.458;2022-08-25T08:20:33;13.70;;;5.85;;
21833;SDS011;11079;51.092;3.458;2022-08-25T08:23:01;20.77;;;6.50;;
21833;SDS011;11079;51.092;3.458;2022-08-25T08:25:27;13.30;;;5.32;;
21833;SDS011;11079;51.092;3.458;2022-08-25T08:27:54;9.52;;;4.78;;
21833;SDS011;11079;51.092;3.458;2022-08-25T08:32:52;7.38;;;4.15;;
21833;SDS011;11079;51.092;3.458;2022-08-25T08:36:03;10.05;;;4.82;;
21833;SDS011;11079;51.092;3.458;2022-08-25T08:39:17;9.85;;;4.45;;
21833;SDS011;11079;51.092;3.458;2022-08-25T08:55:42;9.35;;;3.75;;
21833;SDS011;11079;51.092;3.458;2022-08-25T08:58:39;9.52;;;3.90;;
21833;SDS011;11079;51.092;3.458;2022-08-25T09:01:30;6.65;;;3.60;;
21833;SDS011;11079;51.092;3.458;2022-08-25T09:04:47;9.68;;;2.92;;
21833;SDS011;11079;51.092;3.458;2022-08-25T09:17:11;6.18;;;2.28;;
21833;SDS011;11079;51.092;3.458;2022-08-25T09:28:24;5.80;;;2.35;;
21833;SDS011;11079;51.092;3.458;2022-08-25T09:31:01;7.80;;;3.08;;
21833;SDS011;11079;51.092;3.458;2022-08-25T09:33:29;6.10;;;3.38;;
21833;SDS011;11079;51.092;3.458;2022-08-25T09:35:57;7.00;;;3.10;;
21833;SDS011;11079;51.092;3.458;2022-08-25T09:38:24;7.22;;;2.88;;
21833;SDS011;11079;51.092;3.458;2022-08-25T09:40:56;11.40;;;2.60;;
21833;SDS011;11079;51.092;3.458;2022-08-25T09:46:13;8.13;;;3.22;;
21833;SDS011;11079;51.092;3.458;2022-08-25T09:51:15;7.32;;;3.45;;
21833;SDS011;11079;51.092;3.458;2022-08-25T09:53:47;6.95;;;3.10;;
21833;SDS011;11079;51.092;3.458;2022-08-25T09:56:14;7.13;;;2.72;;
21833;SDS011;11079;51.092;3.458;2022-08-25T09:58:45;6.45;;;2.88;;
21833;SDS011;11079;51.092;3.458;2022-08-25T10:01:13;9.88;;;2.58;;
21833;SDS011;11079;51.092;3.458;2022-08-25T10:03:59;10.23;;;2.60;;
21833;SDS011;11079;51.092;3.458;2022-08-25T10:06:33;6.78;;;3.00;;
21833;SDS011;11079;51.092;3.458;2022-08-25T10:09:06;5.75;;;2.63;;
21833;SDS011;11079;51.092;3.458;2022-08-25T10:14:16;8.55;;;2.58;;
21833;SDS011;11079;51.092;3.458;2022-08-25T10:16:42;6.05;;;2.50;;
21833;SDS011;11079;51.092;3.458;2022-08-25T10:19:32;7.55;;;2.40;;
21833;SDS011;11079;51.092;3.458;2022-08-25T10:22:10;7.32;;;2.55;;
21833;SDS011;11079;51.092;3.458;2022-08-25T10:24:44;9.23;;;3.33;;
21833;SDS011;11079;51.092;3.458;2022-08-25T10:36:00;6.85;;;2.10;;
21833;SDS011;11079;51.092;3.458;2022-08-25T10:38:43;6.55;;;2.47;;
21833;SDS011;11079;51.092;3.458;2022-08-25T10:49:46;5.70;;;3.10;;
21833;SDS011;11079;51.092;3.458;2022-08-25T10:52:49;5.05;;;2.63;;
21833;SDS011;11079;51.092;3.458;2022-08-25T10:55:42;5.30;;;2.50;;
21833;SDS011;11079;51.092;3.458;2022-08-25T10:58:35;5.05;;;2.88;;
21833;SDS011;11079;51.092;3.458;2022-08-25T11:04:08;8.02;;;3.40;;
21833;SDS011;11079;51.092;3.458;2022-08-25T11:07:49;8.68;;;4.80;;
21833;SDS011;11079;51.092;3.458;2022-08-25T11:14:17;9.52;;;5.20;;
21833;SDS011;11079;51.092;3.458;2022-08-25T11:19:50;9.88;;;6.95;;
21833;SDS011;11079;51.092;3.458;2022-08-25T11:25:15;9.60;;;8.35;;
21833;SDS011;11079;51.092;3.458;2022-08-25T11:28:25;15.30;;;9.20;;
21833;SDS011;11079;51.092;3.458;2022-08-25T11:31:07;14.52;;;11.30;;
21833;SDS011;11079;51.092;3.458;2022-08-25T11:33:43;15.85;;;9.70;;
21833;SDS011;11079;51.092;3.458;2022-08-25T11:39:16;15.13;;;13.52;;
21833;SDS011;11079;51.092;3.458;2022-08-25T11:56:59;19.45;;;17.55;;
21833;SDS011;11079;51.092;3.458;2022-08-25T12:10:20;21.52;;;16.40;;
21833;SDS011;11079;51.092;3.458;2022-08-25T12:26:07;19.50;;;17.63;;
21833;SDS011;11079;51.092;3.458;2022-08-25T12:34:24;22.77;;;15.80;;
21833;SDS011;11079;51.092;3.458;2022-08-25T12:37:13;15.57;;;12.98;;
21833;SDS011;11079;51.092;3.458;2022-08-25T12:42:22;19.23;;;14.35;;
21833;SDS011;11079;51.092;3.458;2022-08-25T12:47:41;17.15;;;14.23;;
21833;SDS011;11079;51.092;3.458;2022-08-25T12:53:23;19.60;;;15.23;;
21833;SDS011;11079;51.092;3.458;2022-08-25T12:55:58;22.20;;;19.83;;
21833;SDS011;11079;51.092;3.458;2022-08-25T12:58:27;19.77;;;16.85;;
21833;SDS011;11079;51.092;3.458;2022-08-25T13:09:41;19.95;;;17.92;;
21833;SDS011;11079;51.092;3.458;2022-08-25T13:15:00;24.63;;;19.42;;
21833;SDS011;11079;51.092;3.458;2022-08-25T13:17:31;24.63;;;20.20;;
21833;SDS011;11079;51.092;3.458;2022-08-25T13:20:14;22.40;;;20.20;;
21833;SDS011;11079;51.092;3.458;2022-08-25T13:22:49;21.15;;;18.40;;
21833;SDS011;11079;51.092;3.458;2022-08-25T13:25:19;34.90;;;24.05;;
21833;SDS011;11079;51.092;3.458;2022-08-25T13:27:50;26.10;;;22.33;;
21833;SDS011;11079;51.092;3.458;2022-08-25T13:30:27;30.15;;;24.20;;
21833;SDS011;11079;51.092;3.458;2022-08-25T13:32:55;33.45;;;23.98;;
21833;SDS011;11079;51.092;3.458;2022-08-25T13:35:25;30.83;;;24.92;;
21833;SDS011;11079;51.092;3.458;2022-08-25T13:38:05;36.50;;;29.15;;
21833;SDS011;11079;51.092;3.458;2022-08-25T13:40:37;33.97;;;27.48;;
21833;SDS011;11079;51.092;3.458;2022-08-25T13:43:04;37.30;;;28.38;;
21833;SDS011;11079;51.092;3.458;2022-08-25T13:45:32;36.35;;;27.50;;
21833;SDS011;11079;51.092;3.458;2022-08-25T13:48:02;35.13;;;25.52;;
21833;SDS011;11079;51.092;3.458;2022-08-25T13:50:30;27.92;;;21.35;;
21833;SDS011;11079;51.092;3.458;2022-08-25T13:53:03;24.50;;;19.60;;
21833;SDS011;11079;51.092;3.458;2022-08-25T13:55:33;27.15;;;19.30;;
21833;SDS011;11079;51.092;3.458;2022-08-25T13:57:59;23.65;;;17.33;;
21833;SDS011;11079;51.092;3.458;2022-08-25T14:00:31;26.40;;;15.35;;
21833;SDS011;11079;51.092;3.458;2022-08-25T14:02:59;15.38;;;13.73;;
21833;SDS011;11079;51.092;3.458;2022-08-25T14:08:02;17.63;;;12.27;;
21833;SDS011;11079;51.092;3.458;2022-08-25T14:13:13;15.85;;;10.90;;
21833;SDS011;11079;51.092;3.458;2022-08-25T14:15:51;14.38;;;10.32;;
21833;SDS011;11079;51.092;3.458;2022-08-25T14:18:17;18.20;;;9.27;;
21833;SDS011;11079;51.092;3.458;2022-08-25T14:20:53;13.07;;;8.60;;
21833;SDS011;11079;51.092;3.458;2022-08-25T14:23:21;17.65;;;10.25;;
21833;SDS011;11079;51.092;3.458;2022-08-25T14:25:51;16.00;;;10.10;;
21833;SDS011;11079;51.092;3.458;2022-08-25T14:28:20;16.25;;;10.02;;
21833;SDS011;11079;51.092;3.458;2022-08-25T14:30:49;16.90;;;8.88;;
21833;SDS011;11079;51.092;3.458;2022-08-25T14:33:23;13.80;;;9.00;;
21833;SDS011;11079;51.092;3.458;2022-08-25T14:35:54;12.68;;;8.15;;
21833;SDS011;11079;51.092;3.458;2022-08-25T14:38:22;12.65;;;7.30;;
21833;SDS011;11079;51.092;3.458;2022-08-25T14:40:49;17.08;;;8.13;;
21833;SDS011;11079;51.092;3.458;2022-08-25T14:43:16;11.65;;;7.40;;
21833;SDS011;11079;51.092;3.458;2022-08-25T14:45:42;17.77;;;8.15;;
21833;SDS011;11079;51.092;3.458;2022-08-25T14:48:12;14.35;;;6.78;;
21833;SDS011;11079;51.092;3.458;2022-08-25T14:50:46;15.43;;;6.95;;
21833;SDS011;11079;51.092;3.458;2022-08-25T14:53:12;16.30;;;7.55;;
21833;SDS011;11079;51.092;3.458;2022-08-25T14:55:38;10.57;;;7.07;;
21833;SDS011;11079;51.092;3.458;2022-08-25T14:58:03;16.30;;;6.97;;
21833;SDS011;11079;51.092;3.458;2022-08-25T15:00:29;16.05;;;7.40;;
21833;SDS011;11079;51.092;3.458;2022-08-25T15:02:55;14.77;;;7.78;;
21833;SDS011;11079;51.092;3.458;2022-08-25T15:05:23;21.60;;;7.68;;
21833;SDS011;11079;51.092;3.458;2022-08-25T15:07:51;21.83;;;8.18;;
21833;SDS011;11079;51.092;3.458;2022-08-25T15:10:36;20.98;;;9.25;;
21833;SDS011;11079;51.092;3.458;2022-08-25T15:13:02;15.25;;;9.00;;
21833;SDS011;11079;51.092;3.458;2022-08-25T15:15:29;19.13;;;8.38;;
21833;SDS011;11079;51.092;3.458;2022-08-25T15:17:56;16.25;;;8.35;;
21833;SDS011;11079;51.092;3.458;2022-08-25T15:20:22;13.35;;;8.07;;
21833;SDS011;11079;51.092;3.458;2022-08-25T15:22:48;19.20;;;9.23;;
21833;SDS011;11079;51.092;3.458;2022-08-25T15:25:14;15.32;;;9.25;;
21833;SDS011;11079;51.092;3.458;2022-08-25T15:27:39;15.90;;;8.52;;
21833;SDS011;11079;51.092;3.458;2022-08-25T15:30:05;15.88;;;9.00;;
21833;SDS011;11079;51.092;3.458;2022-08-25T15:32:31;22.50;;;8.57;;
21833;SDS011;11079;51.092;3.458;2022-08-25T15:34:57;20.85;;;7.55;;
21833;SDS011;11079;51.092;3.458;2022-08-25T15:37:24;21.63;;;8.27;;
21833;SDS011;11079;51.092;3.458;2022-08-25T15:39:50;20.55;;;8.77;;
21833;SDS011;11079;51.092;3.458;2022-08-25T15:42:16;16.08;;;8.68;;
21833;SDS011;11079;51.092;3.458;2022-08-25T15:44:42;18.05;;;7.95;;
21833;SDS011;11079;51.092;3.458;2022-08-25T15:47:08;14.52;;;7.10;;
21833;SDS011;11079;51.092;3.458;2022-08-25T15:49:34;15.98;;;8.32;;
21833;SDS011;11079;51.092;3.458;2022-08-25T15:52:00;12.57;;;6.25;;
21833;SDS011;11079;51.092;3.458;2022-08-25T15:54:26;16.05;;;6.40;;
21833;SDS011;11079;51.092;3.458;2022-08-25T15:56:53;15.63;;;5.32;;
21833;SDS011;11079;51.092;3.458;2022-08-25T15:59:20;11.90;;;4.88;;
21833;SDS011;11079;51.092;3.458;2022-08-25T16:01:46;13.18;;;4.65;;
21833;SDS011;11079;51.092;3.458;2022-08-25T16:04:12;11.30;;;4.22;;
21833;SDS011;11079;51.092;3.458;2022-08-25T16:06:38;11.13;;;4.68;;
21833;SDS011;11079;51.092;3.458;2022-08-25T16:09:05;12.23;;;3.80;;
21833;SDS011;11079;51.092;3.458;2022-08-25T16:11:31;17.58;;;5.30;;
21833;SDS011;11079;51.092;3.458;2022-08-25T16:13:58;12.52;;;3.65;;
21833;SDS011;11079;51.092;3.458;2022-08-25T16:16:25;12.30;;;3.63;;
21833;SDS011;11079;51.092;3.458;2022-08-25T16:18:52;8.52;;;3.53;;
21833;SDS011;11079;51.092;3.458;2022-08-25T16:21:19;9.43;;;3.80;;
21833;SDS011;11079;51.092;3.458;2022-08-25T16:23:48;6.68;;;3.30;;
21833;SDS011;11079;51.092;3.458;2022-08-25T16:26:14;7.53;;;3.30;;
21833;SDS011;11079;51.092;3.458;2022-08-25T16:28:40;10.10;;;3.40;;
21833;SDS011;11079;51.092;3.458;2022-08-25T16:31:10;13.70;;;3.55;;
21833;SDS011;11079;51.092;3.458;2022-08-25T16:33:37;10.68;;;3.22;;
21833;SDS011;11079;51.092;3.458;2022-08-25T16:36:07;11.15;;;3.55;;
21833;SDS011;11079;51.092;3.458;2022-08-25T16:38:35;11.23;;;2.72;;
21833;SDS011;11079;51.092;3.458;2022-08-25T16:41:06;11.38;;;2.88;;
21833;SDS011;11079;51.092;3.458;2022-08-25T16:43:32;6.97;;;2.47;;
21833;SDS011;11079;51.092;3.458;2022-08-25T16:46:02;12.57;;;2.75;;
21833;SDS011;11079;51.092;3.458;2022-08-25T16:48:30;10.88;;;2.78;;
21833;SDS011;11079;51.092;3.458;2022-08-25T16:50:56;10.65;;;2.53;;
21833;SDS011;11079;51.092;3.458;2022-08-25T16:53:22;8.35;;;2.47;;
21833;SDS011;11079;51.092;3.458;2022-08-25T16:56:23;10.40;;;2.58;;
21833;SDS011;11079;51.092;3.458;2022-08-25T16:58:53;10.93;;;3.00;;
21833;SDS011;11079;51.092;3.458;2022-08-25T17:01:20;6.20;;;2.25;;
21833;SDS011;11079;51.092;3.458;2022-08-25T17:03:47;8.18;;;2.08;;
21833;SDS011;11079;51.092;3.458;2022-08-25T17:06:15;7.25;;;2.03;;
21833;SDS011;11079;51.092;3.458;2022-08-25T17:08:41;8.60;;;1.83;;
21833;SDS011;11079;51.092;3.458;2022-08-25T17:13:50;3.58;;;1.30;;
21833;SDS011;11079;51.092;3.458;2022-08-25T17:16:18;5.53;;;1.38;;
21833;SDS011;11079;51.092;3.458;2022-08-25T17:18:45;8.48;;;1.45;;